sensor_id;sensor_type;location;lat;lon;timestamp;P1;durP1;ratioP1;P2;durP2;ratioP2
579;SDS011;276;48.392;9.950;2022-11-15T00:00:52;17.10;;;11.47;;
579;SDS011;276;48.392;9.950;2022-11-15T00:03:19;11.47;;;10.37;;
579;SDS011;276;48.392;9.950;2022-11-15T00:05:49;12.57;;;11.37;;
579;SDS011;276;48.392;9.950;2022-11-15T00:08:17;11.23;;;10.33;;
579;SDS011;276;48.392;9.950;2022-11-15T00:11:03;10.57;;;9.57;;
579;SDS011;276;48.392;9.950;2022-11-15T00:13:31;11.10;;;9.90;;
579;SDS011;276;48.392;9.950;2022-11-15T00:15:57;9.20;;;8.50;;
579;SDS011;276;48.392;9.950;2022-11-15T00:18:24;8.83;;;7.90;;
579;SDS011;276;48.392;9.950;2022-11-15T00:20:50;7.90;;;7.10;;
579;SDS011;276;48.392;9.950;2022-11-15T00:23:18;7.20;;;6.50;;
579;SDS011;276;48.392;9.950;2022-11-15T00:25:45;8.43;;;6.47;;
579;SDS011;276;48.392;9.950;2022-11-15T00:28:11;7.63;;;6.90;;
579;SDS011;276;48.392;9.950;2022-11-15T00:30:37;7.90;;;7.10;;
579;SDS011;276;48.392;9.950;2022-11-15T00:33:06;8.23;;;7.43;;
579;SDS011;276;48.392;9.950;2022-11-15T00:35:32;7.10;;;6.50;;
579;SDS011;276;48.392;9.950;2022-11-15T00:37:59;8.10;;;7.00;;
579;SDS011;276;48.392;9.950;2022-11-15T00:40:25;10.77;;;7.47;;
579;SDS011;276;48.392;9.950;2022-11-15T00:42:51;8.30;;;7.23;;
579;SDS011;276;48.392;9.950;2022-11-15T00:45:19;8.27;;;7.53;;
579;SDS011;276;48.392;9.950;2022-11-15T00:47:45;7.97;;;7.30;;
579;SDS011;276;48.392;9.950;2022-11-15T00:50:11;8.27;;;7.57;;
579;SDS011;276;48.392;9.950;2022-11-15T00:52:37;8.43;;;7.63;;
579;SDS011;276;48.392;9.950;2022-11-15T00:55:03;8.03;;;7.20;;
579;SDS011;276;48.392;9.950;2022-11-15T00:57:29;7.70;;;7.00;;
579;SDS011;276;48.392;9.950;2022-11-15T00:59:54;6.20;;;5.70;;
579;SDS011;276;48.392;9.950;2022-11-15T01:02:20;7.13;;;6.57;;
579;SDS011;276;48.392;9.950;2022-11-15T01:04:48;8.90;;;8.00;;
579;SDS011;276;48.392;9.950;2022-11-15T01:07:16;6.43;;;5.77;;
579;SDS011;276;48.392;9.950;2022-11-15T01:09:44;7.40;;;6.70;;
579;SDS011;276;48.392;9.950;2022-11-15T01:12:09;6.13;;;5.67;;
579;SDS011;276;48.392;9.950;2022-11-15T01:14:35;6.80;;;6.20;;
579;SDS011;276;48.392;9.950;2022-11-15T01:17:00;7.13;;;6.53;;
579;SDS011;276;48.392;9.950;2022-11-15T01:19:26;6.80;;;6.30;;
579;SDS011;276;48.392;9.950;2022-11-15T01:21:52;6.60;;;6.07;;
579;SDS011;276;48.392;9.950;2022-11-15T01:24:17;5.90;;;5.20;;
579;SDS011;276;48.392;9.950;2022-11-15T01:26:45;7.67;;;5.03;;
579;SDS011;276;48.392;9.950;2022-11-15T01:29:11;5.70;;;5.20;;
579;SDS011;276;48.392;9.950;2022-11-15T01:31:36;5.87;;;5.33;;
579;SDS011;276;48.392;9.950;2022-11-15T01:34:02;6.20;;;5.67;;
579;SDS011;276;48.392;9.950;2022-11-15T01:36:28;7.33;;;5.77;;
579;SDS011;276;48.392;9.950;2022-11-15T01:38:54;5.63;;;5.23;;
579;SDS011;276;48.392;9.950;2022-11-15T01:41:27;6.07;;;5.43;;
579;SDS011;276;48.392;9.950;2022-11-15T01:43:56;5.10;;;4.70;;
579;SDS011;276;48.392;9.950;2022-11-15T01:46:42;5.27;;;4.87;;
579;SDS011;276;48.392;9.950;2022-11-15T01:49:14;7.43;;;4.83;;
579;SDS011;276;48.392;9.950;2022-11-15T01:51:45;5.80;;;5.20;;
579;SDS011;276;48.392;9.950;2022-11-15T01:54:12;5.63;;;5.23;;
579;SDS011;276;48.392;9.950;2022-11-15T01:57:04;6.60;;;5.70;;
579;SDS011;276;48.392;9.950;2022-11-15T01:59:37;6.73;;;5.30;;
579;SDS011;276;48.392;9.950;2022-11-15T02:02:05;5.60;;;5.10;;
579;SDS011;276;48.392;9.950;2022-11-15T02:04:32;6.00;;;5.30;;
579;SDS011;276;48.392;9.950;2022-11-15T02:07:01;4.80;;;4.40;;
579;SDS011;276;48.392;9.950;2022-11-15T02:09:31;6.50;;;5.20;;
579;SDS011;276;48.392;9.950;2022-11-15T02:11:57;5.83;;;5.37;;
579;SDS011;276;48.392;9.950;2022-11-15T02:14:26;6.13;;;5.63;;
579;SDS011;276;48.392;9.950;2022-11-15T02:24:53;5.67;;;5.17;;
579;SDS011;276;48.392;9.950;2022-11-15T02:35:46;5.73;;;5.23;;
579;SDS011;276;48.392;9.950;2022-11-15T02:41:06;4.90;;;4.50;;
579;SDS011;276;48.392;9.950;2022-11-15T02:49:31;13.23;;;5.10;;
579;SDS011;276;48.392;9.950;2022-11-15T02:51:58;6.10;;;5.60;;
579;SDS011;276;48.392;9.950;2022-11-15T02:54:28;6.07;;;5.57;;
579;SDS011;276;48.392;9.950;2022-11-15T02:56:58;4.83;;;4.43;;
579;SDS011;276;48.392;9.950;2022-11-15T03:07:30;5.83;;;5.33;;
579;SDS011;276;48.392;9.950;2022-11-15T03:10:09;5.57;;;5.10;;
579;SDS011;276;48.392;9.950;2022-11-15T03:12:47;5.43;;;4.40;;
579;SDS011;276;48.392;9.950;2022-11-15T03:15:36;6.10;;;5.60;;
579;SDS011;276;48.392;9.950;2022-11-15T03:18:22;5.23;;;4.83;;
579;SDS011;276;48.392;9.950;2022-11-15T03:20:54;6.20;;;4.97;;
579;SDS011;276;48.392;9.950;2022-11-15T03:23:25;6.03;;;5.43;;
579;SDS011;276;48.392;9.950;2022-11-15T03:25:53;6.60;;;4.83;;
579;SDS011;276;48.392;9.950;2022-11-15T03:28:25;5.53;;;5.10;;
579;SDS011;276;48.392;9.950;2022-11-15T03:30:57;6.37;;;5.73;;
579;SDS011;276;48.392;9.950;2022-11-15T03:33:46;5.50;;;5.00;;
579;SDS011;276;48.392;9.950;2022-11-15T03:36:12;6.27;;;5.73;;
579;SDS011;276;48.392;9.950;2022-11-15T03:38:38;5.03;;;4.73;;
579;SDS011;276;48.392;9.950;2022-11-15T03:41:07;6.00;;;5.50;;
579;SDS011;276;48.392;9.950;2022-11-15T03:43:56;5.90;;;5.03;;
579;SDS011;276;48.392;9.950;2022-11-15T03:46:36;6.03;;;5.53;;
579;SDS011;276;48.392;9.950;2022-11-15T03:49:11;5.93;;;5.50;;
579;SDS011;276;48.392;9.950;2022-11-15T03:51:50;5.60;;;5.07;;
579;SDS011;276;48.392;9.950;2022-11-15T03:54:16;5.93;;;5.43;;
579;SDS011;276;48.392;9.950;2022-11-15T03:56:41;5.70;;;5.20;;
579;SDS011;276;48.392;9.950;2022-11-15T03:59:07;6.17;;;5.60;;
579;SDS011;276;48.392;9.950;2022-11-15T04:01:37;4.93;;;4.53;;
579;SDS011;276;48.392;9.950;2022-11-15T04:04:05;5.60;;;5.10;;
579;SDS011;276;48.392;9.950;2022-11-15T04:06:33;5.77;;;5.37;;
579;SDS011;276;48.392;9.950;2022-11-15T04:09:04;6.50;;;5.90;;
579;SDS011;276;48.392;9.950;2022-11-15T04:11:32;6.77;;;6.17;;
579;SDS011;276;48.392;9.950;2022-11-15T04:14:00;6.90;;;6.03;;
579;SDS011;276;48.392;9.950;2022-11-15T04:16:26;7.97;;;7.10;;
579;SDS011;276;48.392;9.950;2022-11-15T04:18:51;5.50;;;5.10;;
579;SDS011;276;48.392;9.950;2022-11-15T04:21:38;7.93;;;6.80;;
579;SDS011;276;48.392;9.950;2022-11-15T04:24:22;6.70;;;6.20;;
579;SDS011;276;48.392;9.950;2022-11-15T04:26:48;6.37;;;5.63;;
579;SDS011;276;48.392;9.950;2022-11-15T04:29:15;7.33;;;6.67;;
579;SDS011;276;48.392;9.950;2022-11-15T04:31:59;7.93;;;7.30;;
579;SDS011;276;48.392;9.950;2022-11-15T04:34:26;8.03;;;7.23;;
579;SDS011;276;48.392;9.950;2022-11-15T04:36:53;7.77;;;7.07;;
579;SDS011;276;48.392;9.950;2022-11-15T04:39:38;7.10;;;6.57;;
579;SDS011;276;48.392;9.950;2022-11-15T04:42:07;6.80;;;6.20;;
579;SDS011;276;48.392;9.950;2022-11-15T04:44:35;7.57;;;6.93;;
579;SDS011;276;48.392;9.950;2022-11-15T04:47:01;9.80;;;8.80;;
579;SDS011;276;48.392;9.950;2022-11-15T04:49:32;10.87;;;8.90;;
579;SDS011;276;48.392;9.950;2022-11-15T04:51:59;8.80;;;8.00;;
579;SDS011;276;48.392;9.950;2022-11-15T04:54:25;8.07;;;7.20;;
579;SDS011;276;48.392;9.950;2022-11-15T04:56:53;6.80;;;6.20;;
579;SDS011;276;48.392;9.950;2022-11-15T04:59:19;6.87;;;6.37;;
579;SDS011;276;48.392;9.950;2022-11-15T05:01:44;7.27;;;6.57;;
579;SDS011;276;48.392;9.950;2022-11-15T05:04:12;8.80;;;7.87;;
579;SDS011;276;48.392;9.950;2022-11-15T05:06:45;7.50;;;6.77;;
579;SDS011;276;48.392;9.950;2022-11-15T05:09:11;8.60;;;7.90;;
579;SDS011;276;48.392;9.950;2022-11-15T05:11:38;8.50;;;7.70;;
579;SDS011;276;48.392;9.950;2022-11-15T05:14:04;7.97;;;7.07;;
579;SDS011;276;48.392;9.950;2022-11-15T05:16:30;7.67;;;6.13;;
579;SDS011;276;48.392;9.950;2022-11-15T05:18:55;7.47;;;6.70;;
579;SDS011;276;48.392;9.950;2022-11-15T05:21:21;6.80;;;6.30;;
579;SDS011;276;48.392;9.950;2022-11-15T05:23:47;6.80;;;6.20;;
579;SDS011;276;48.392;9.950;2022-11-15T05:26:13;8.40;;;7.33;;
579;SDS011;276;48.392;9.950;2022-11-15T05:28:40;8.87;;;8.00;;
579;SDS011;276;48.392;9.950;2022-11-15T05:31:08;8.37;;;7.47;;
579;SDS011;276;48.392;9.950;2022-11-15T05:33:38;12.10;;;8.83;;
579;SDS011;276;48.392;9.950;2022-11-15T05:38:43;8.60;;;7.80;;
579;SDS011;276;48.392;9.950;2022-11-15T05:41:12;7.27;;;6.57;;
579;SDS011;276;48.392;9.950;2022-11-15T05:43:42;8.40;;;7.70;;
579;SDS011;276;48.392;9.950;2022-11-15T05:46:11;11.37;;;10.20;;
579;SDS011;276;48.392;9.950;2022-11-15T05:48:38;13.90;;;11.90;;
579;SDS011;276;48.392;9.950;2022-11-15T05:51:09;12.97;;;11.57;;
579;SDS011;276;48.392;9.950;2022-11-15T05:53:36;13.13;;;11.73;;
579;SDS011;276;48.392;9.950;2022-11-15T05:56:04;10.73;;;9.53;;
579;SDS011;276;48.392;9.950;2022-11-15T05:58:34;12.07;;;10.77;;
579;SDS011;276;48.392;9.950;2022-11-15T06:01:00;13.47;;;9.87;;
579;SDS011;276;48.392;9.950;2022-11-15T06:03:26;14.33;;;12.27;;
579;SDS011;276;48.392;9.950;2022-11-15T06:05:54;16.40;;;10.50;;
579;SDS011;276;48.392;9.950;2022-11-15T06:08:19;11.13;;;10.00;;
579;SDS011;276;48.392;9.950;2022-11-15T06:10:45;10.40;;;9.03;;
579;SDS011;276;48.392;9.950;2022-11-15T06:13:13;10.90;;;9.73;;
579;SDS011;276;48.392;9.950;2022-11-15T06:15:39;10.03;;;9.07;;
579;SDS011;276;48.392;9.950;2022-11-15T06:18:06;10.70;;;8.43;;
579;SDS011;276;48.392;9.950;2022-11-15T06:20:35;9.43;;;8.53;;
579;SDS011;276;48.392;9.950;2022-11-15T06:23:01;12.97;;;8.57;;
579;SDS011;276;48.392;9.950;2022-11-15T06:25:28;9.50;;;8.07;;
579;SDS011;276;48.392;9.950;2022-11-15T06:27:55;9.63;;;8.73;;
579;SDS011;276;48.392;9.950;2022-11-15T06:30:22;8.73;;;7.83;;
579;SDS011;276;48.392;9.950;2022-11-15T06:32:54;9.80;;;8.87;;
579;SDS011;276;48.392;9.950;2022-11-15T06:35:26;11.70;;;10.43;;
579;SDS011;276;48.392;9.950;2022-11-15T06:37:54;11.97;;;10.73;;
579;SDS011;276;48.392;9.950;2022-11-15T06:40:20;11.90;;;10.67;;
579;SDS011;276;48.392;9.950;2022-11-15T06:42:46;12.07;;;10.70;;
579;SDS011;276;48.392;9.950;2022-11-15T06:45:11;11.90;;;10.70;;
579;SDS011;276;48.392;9.950;2022-11-15T06:47:46;10.97;;;9.83;;
579;SDS011;276;48.392;9.950;2022-11-15T06:50:12;13.40;;;11.07;;
579;SDS011;276;48.392;9.950;2022-11-15T06:52:38;10.67;;;9.50;;
579;SDS011;276;48.392;9.950;2022-11-15T06:55:06;11.43;;;10.23;;
579;SDS011;276;48.392;9.950;2022-11-15T06:57:33;11.83;;;10.70;;
579;SDS011;276;48.392;9.950;2022-11-15T06:59:58;12.13;;;10.67;;
579;SDS011;276;48.392;9.950;2022-11-15T07:02:24;12.23;;;11.03;;
579;SDS011;276;48.392;9.950;2022-11-15T07:04:49;11.77;;;10.67;;
579;SDS011;276;48.392;9.950;2022-11-15T07:07:15;12.40;;;11.33;;
579;SDS011;276;48.392;9.950;2022-11-15T07:09:41;11.63;;;10.63;;
579;SDS011;276;48.392;9.950;2022-11-15T07:12:06;13.27;;;11.87;;
579;SDS011;276;48.392;9.950;2022-11-15T07:14:34;13.90;;;12.43;;
579;SDS011;276;48.392;9.950;2022-11-15T07:17:02;13.93;;;12.60;;
579;SDS011;276;48.392;9.950;2022-11-15T07:19:29;12.43;;;11.20;;
579;SDS011;276;48.392;9.950;2022-11-15T07:21:57;11.67;;;10.50;;
579;SDS011;276;48.392;9.950;2022-11-15T07:24:25;13.57;;;10.47;;
579;SDS011;276;48.392;9.950;2022-11-15T07:26:50;13.90;;;9.63;;
579;SDS011;276;48.392;9.950;2022-11-15T07:29:16;11.97;;;10.90;;
579;SDS011;276;48.392;9.950;2022-11-15T07:31:41;10.00;;;9.10;;
579;SDS011;276;48.392;9.950;2022-11-15T07:34:09;11.97;;;10.17;;
579;SDS011;276;48.392;9.950;2022-11-15T07:36:37;12.10;;;10.90;;
579;SDS011;276;48.392;9.950;2022-11-15T07:39:03;12.03;;;9.40;;
579;SDS011;276;48.392;9.950;2022-11-15T07:41:28;17.37;;;13.13;;
579;SDS011;276;48.392;9.950;2022-11-15T07:43:54;11.90;;;10.33;;
579;SDS011;276;48.392;9.950;2022-11-15T07:46:20;12.30;;;11.27;;
579;SDS011;276;48.392;9.950;2022-11-15T07:48:46;12.93;;;11.77;;
579;SDS011;276;48.392;9.950;2022-11-15T07:51:14;11.90;;;10.87;;
579;SDS011;276;48.392;9.950;2022-11-15T07:53:44;11.70;;;10.60;;
579;SDS011;276;48.392;9.950;2022-11-15T07:56:10;15.17;;;13.27;;
579;SDS011;276;48.392;9.950;2022-11-15T07:58:36;12.33;;;11.13;;
579;SDS011;276;48.392;9.950;2022-11-15T08:01:07;13.30;;;11.13;;
579;SDS011;276;48.392;9.950;2022-11-15T08:03:35;11.90;;;10.80;;
579;SDS011;276;48.392;9.950;2022-11-15T08:06:02;11.27;;;10.10;;
579;SDS011;276;48.392;9.950;2022-11-15T08:08:30;12.60;;;9.97;;
579;SDS011;276;48.392;9.950;2022-11-15T08:10:58;10.43;;;9.50;;
579;SDS011;276;48.392;9.950;2022-11-15T08:13:26;10.47;;;9.57;;
579;SDS011;276;48.392;9.950;2022-11-15T08:16:00;9.43;;;8.63;;
579;SDS011;276;48.392;9.950;2022-11-15T08:18:27;12.60;;;8.33;;
579;SDS011;276;48.392;9.950;2022-11-15T08:20:57;14.30;;;10.43;;
579;SDS011;276;48.392;9.950;2022-11-15T08:23:24;11.10;;;10.10;;
579;SDS011;276;48.392;9.950;2022-11-15T08:25:52;10.10;;;9.20;;
579;SDS011;276;48.392;9.950;2022-11-15T08:28:23;11.87;;;10.77;;
579;SDS011;276;48.392;9.950;2022-11-15T08:30:51;10.03;;;9.03;;
579;SDS011;276;48.392;9.950;2022-11-15T08:33:16;9.90;;;8.90;;
579;SDS011;276;48.392;9.950;2022-11-15T08:35:42;10.80;;;9.70;;
579;SDS011;276;48.392;9.950;2022-11-15T08:38:09;13.57;;;10.00;;
579;SDS011;276;48.392;9.950;2022-11-15T08:40:37;10.87;;;9.90;;
579;SDS011;276;48.392;9.950;2022-11-15T08:43:03;9.23;;;8.43;;
579;SDS011;276;48.392;9.950;2022-11-15T08:45:31;9.80;;;9.00;;
579;SDS011;276;48.392;9.950;2022-11-15T08:48:00;11.50;;;9.17;;
579;SDS011;276;48.392;9.950;2022-11-15T08:50:27;10.30;;;9.07;;
579;SDS011;276;48.392;9.950;2022-11-15T08:52:52;10.97;;;10.17;;
579;SDS011;276;48.392;9.950;2022-11-15T08:55:23;11.50;;;9.73;;
579;SDS011;276;48.392;9.950;2022-11-15T08:57:53;9.50;;;8.53;;
579;SDS011;276;48.392;9.950;2022-11-15T09:00:21;20.47;;;18.53;;
579;SDS011;276;48.392;9.950;2022-11-15T09:02:49;18.43;;;16.93;;
579;SDS011;276;48.392;9.950;2022-11-15T09:05:20;16.03;;;13.17;;
579;SDS011;276;48.392;9.950;2022-11-15T09:07:45;14.13;;;12.83;;
579;SDS011;276;48.392;9.950;2022-11-15T09:10:11;12.20;;;10.80;;
579;SDS011;276;48.392;9.950;2022-11-15T09:12:39;11.47;;;10.40;;
579;SDS011;276;48.392;9.950;2022-11-15T09:15:08;12.87;;;11.03;;
579;SDS011;276;48.392;9.950;2022-11-15T09:17:36;10.57;;;9.67;;
579;SDS011;276;48.392;9.950;2022-11-15T09:20:04;10.30;;;9.40;;
579;SDS011;276;48.392;9.950;2022-11-15T09:22:30;14.97;;;10.93;;
579;SDS011;276;48.392;9.950;2022-11-15T09:24:56;12.47;;;11.17;;
579;SDS011;276;48.392;9.950;2022-11-15T09:27:22;10.60;;;9.53;;
579;SDS011;276;48.392;9.950;2022-11-15T09:29:47;10.20;;;9.40;;
579;SDS011;276;48.392;9.950;2022-11-15T09:32:17;11.90;;;10.80;;
579;SDS011;276;48.392;9.950;2022-11-15T09:34:45;12.70;;;11.40;;
579;SDS011;276;48.392;9.950;2022-11-15T09:37:11;13.30;;;12.10;;
579;SDS011;276;48.392;9.950;2022-11-15T09:39:37;13.57;;;12.37;;
579;SDS011;276;48.392;9.950;2022-11-15T09:50:08;12.40;;;11.30;;
579;SDS011;276;48.392;9.950;2022-11-15T09:52:38;10.07;;;9.17;;
579;SDS011;276;48.392;9.950;2022-11-15T09:55:12;10.50;;;9.67;;
579;SDS011;276;48.392;9.950;2022-11-15T09:58:03;9.30;;;8.60;;
579;SDS011;276;48.392;9.950;2022-11-15T10:00:42;13.93;;;12.30;;
579;SDS011;276;48.392;9.950;2022-11-15T10:03:27;16.27;;;14.97;;
579;SDS011;276;48.392;9.950;2022-11-15T10:05:59;16.30;;;14.90;;
579;SDS011;276;48.392;9.950;2022-11-15T10:11:34;15.40;;;13.90;;
579;SDS011;276;48.392;9.950;2022-11-15T10:14:02;13.03;;;12.03;;
579;SDS011;276;48.392;9.950;2022-11-15T10:19:20;12.33;;;11.33;;
579;SDS011;276;48.392;9.950;2022-11-15T10:24:43;10.90;;;10.00;;
579;SDS011;276;48.392;9.950;2022-11-15T10:27:16;11.60;;;10.60;;
579;SDS011;276;48.392;9.950;2022-11-15T10:29:47;10.80;;;9.90;;
579;SDS011;276;48.392;9.950;2022-11-15T10:32:14;10.80;;;9.70;;
579;SDS011;276;48.392;9.950;2022-11-15T10:34:42;11.10;;;10.20;;
579;SDS011;276;48.392;9.950;2022-11-15T10:37:09;9.57;;;8.60;;
579;SDS011;276;48.392;9.950;2022-11-15T10:39:37;8.70;;;7.90;;
579;SDS011;276;48.392;9.950;2022-11-15T10:42:14;9.37;;;8.57;;
579;SDS011;276;48.392;9.950;2022-11-15T10:44:42;10.27;;;9.40;;
579;SDS011;276;48.392;9.950;2022-11-15T10:47:23;11.80;;;9.97;;
579;SDS011;276;48.392;9.950;2022-11-15T10:50:00;15.60;;;12.57;;
579;SDS011;276;48.392;9.950;2022-11-15T10:52:28;14.60;;;12.67;;
579;SDS011;276;48.392;9.950;2022-11-15T10:54:58;16.83;;;13.20;;
579;SDS011;276;48.392;9.950;2022-11-15T10:57:37;10.03;;;9.23;;
579;SDS011;276;48.392;9.950;2022-11-15T11:03:06;9.57;;;8.60;;
579;SDS011;276;48.392;9.950;2022-11-15T11:05:50;9.63;;;8.57;;
579;SDS011;276;48.392;9.950;2022-11-15T11:08:32;9.50;;;8.70;;
579;SDS011;276;48.392;9.950;2022-11-15T11:11:04;15.63;;;13.37;;
579;SDS011;276;48.392;9.950;2022-11-15T11:13:37;18.70;;;13.27;;
579;SDS011;276;48.392;9.950;2022-11-15T11:27:35;8.10;;;7.60;;
579;SDS011;276;48.392;9.950;2022-11-15T11:35:21;9.90;;;9.00;;
579;SDS011;276;48.392;9.950;2022-11-15T11:38:39;7.90;;;7.33;;
579;SDS011;276;48.392;9.950;2022-11-15T11:40:57;8.43;;;7.67;;
579;SDS011;276;48.392;9.950;2022-11-15T11:43:44;9.50;;;8.80;;
579;SDS011;276;48.392;9.950;2022-11-15T11:49:03;9.40;;;8.03;;
579;SDS011;276;48.392;9.950;2022-11-15T11:51:37;9.30;;;8.47;;
579;SDS011;276;48.392;9.950;2022-11-15T11:54:17;8.17;;;7.57;;
579;SDS011;276;48.392;9.950;2022-11-15T11:56:49;9.50;;;8.73;;
579;SDS011;276;48.392;9.950;2022-11-15T11:59:23;9.40;;;8.60;;
579;SDS011;276;48.392;9.950;2022-11-15T12:01:58;7.70;;;7.03;;
579;SDS011;276;48.392;9.950;2022-11-15T12:04:38;7.90;;;7.30;;
579;SDS011;276;48.392;9.950;2022-11-15T12:07:11;8.57;;;7.87;;
579;SDS011;276;48.392;9.950;2022-11-15T12:09:46;6.90;;;6.37;;
579;SDS011;276;48.392;9.950;2022-11-15T12:15:04;7.90;;;7.20;;
579;SDS011;276;48.392;9.950;2022-11-15T12:17:36;9.10;;;8.50;;
579;SDS011;276;48.392;9.950;2022-11-15T12:20:32;9.80;;;9.10;;
579;SDS011;276;48.392;9.950;2022-11-15T12:23:04;10.03;;;9.23;;
579;SDS011;276;48.392;9.950;2022-11-15T12:28:18;12.00;;;11.10;;
579;SDS011;276;48.392;9.950;2022-11-15T12:30:46;9.70;;;8.90;;
579;SDS011;276;48.392;9.950;2022-11-15T12:36:11;10.47;;;9.57;;
579;SDS011;276;48.392;9.950;2022-11-15T12:41:27;11.33;;;10.33;;
579;SDS011;276;48.392;9.950;2022-11-15T12:43:57;9.57;;;8.77;;
579;SDS011;276;48.392;9.950;2022-11-15T12:59:50;12.70;;;11.60;;
579;SDS011;276;48.392;9.950;2022-11-15T13:05:56;15.43;;;13.90;;
579;SDS011;276;48.392;9.950;2022-11-15T13:08:03;14.37;;;12.87;;
579;SDS011;276;48.392;9.950;2022-11-15T13:10:32;11.20;;;10.10;;
579;SDS011;276;48.392;9.950;2022-11-15T13:12:59;12.40;;;11.37;;
579;SDS011;276;48.392;9.950;2022-11-15T13:20:58;12.07;;;10.87;;
579;SDS011;276;48.392;9.950;2022-11-15T13:23:51;12.70;;;11.50;;
579;SDS011;276;48.392;9.950;2022-11-15T13:26:17;13.27;;;12.17;;
579;SDS011;276;48.392;9.950;2022-11-15T13:28:46;13.73;;;12.53;;
579;SDS011;276;48.392;9.950;2022-11-15T13:31:22;13.00;;;12.00;;
579;SDS011;276;48.392;9.950;2022-11-15T13:36:52;17.70;;;16.20;;
579;SDS011;276;48.392;9.950;2022-11-15T13:41:55;12.37;;;11.37;;
579;SDS011;276;48.392;9.950;2022-11-15T13:44:22;14.50;;;13.20;;
579;SDS011;276;48.392;9.950;2022-11-15T13:49:32;14.40;;;13.20;;
579;SDS011;276;48.392;9.950;2022-11-15T13:52:04;13.23;;;12.07;;
579;SDS011;276;48.392;9.950;2022-11-15T13:57:03;13.53;;;12.43;;
579;SDS011;276;48.392;9.950;2022-11-15T13:59:36;12.13;;;11.03;;
579;SDS011;276;48.392;9.950;2022-11-15T14:02:13;13.27;;;11.97;;
579;SDS011;276;48.392;9.950;2022-11-15T14:04:48;14.27;;;12.93;;
579;SDS011;276;48.392;9.950;2022-11-15T14:07:19;14.70;;;13.50;;
579;SDS011;276;48.392;9.950;2022-11-15T14:09:46;12.03;;;10.80;;
579;SDS011;276;48.392;9.950;2022-11-15T14:12:23;11.67;;;10.67;;
579;SDS011;276;48.392;9.950;2022-11-15T14:14:59;12.83;;;11.53;;
579;SDS011;276;48.392;9.950;2022-11-15T14:17:45;12.27;;;11.17;;
579;SDS011;276;48.392;9.950;2022-11-15T14:23:01;12.90;;;11.73;;
579;SDS011;276;48.392;9.950;2022-11-15T14:25:32;12.23;;;10.87;;
579;SDS011;276;48.392;9.950;2022-11-15T14:30:56;12.57;;;11.47;;
579;SDS011;276;48.392;9.950;2022-11-15T14:33:33;11.50;;;10.50;;
579;SDS011;276;48.392;9.950;2022-11-15T14:36:19;12.87;;;11.63;;
579;SDS011;276;48.392;9.950;2022-11-15T14:38:50;12.93;;;11.63;;
579;SDS011;276;48.392;9.950;2022-11-15T14:41:20;14.63;;;13.10;;
579;SDS011;276;48.392;9.950;2022-11-15T14:43:50;12.47;;;11.23;;
579;SDS011;276;48.392;9.950;2022-11-15T14:46:18;11.27;;;10.20;;
579;SDS011;276;48.392;9.950;2022-11-15T14:48:46;10.10;;;9.30;;
579;SDS011;276;48.392;9.950;2022-11-15T14:51:16;13.10;;;12.00;;
579;SDS011;276;48.392;9.950;2022-11-15T14:53:43;13.70;;;12.50;;
579;SDS011;276;48.392;9.950;2022-11-15T14:56:12;14.60;;;12.93;;
579;SDS011;276;48.392;9.950;2022-11-15T14:58:41;13.73;;;12.50;;
579;SDS011;276;48.392;9.950;2022-11-15T15:01:14;14.13;;;12.63;;
579;SDS011;276;48.392;9.950;2022-11-15T15:03:45;11.53;;;10.47;;
579;SDS011;276;48.392;9.950;2022-11-15T15:06:13;11.90;;;11.00;;
579;SDS011;276;48.392;9.950;2022-11-15T15:08:39;10.90;;;9.90;;
579;SDS011;276;48.392;9.950;2022-11-15T15:11:14;11.80;;;10.60;;
579;SDS011;276;48.392;9.950;2022-11-15T15:13:50;10.47;;;9.57;;
579;SDS011;276;48.392;9.950;2022-11-15T15:16:17;10.73;;;9.60;;
579;SDS011;276;48.392;9.950;2022-11-15T15:18:47;10.43;;;9.57;;
579;SDS011;276;48.392;9.950;2022-11-15T15:21:24;9.70;;;8.90;;
579;SDS011;276;48.392;9.950;2022-11-15T15:23:53;12.30;;;11.20;;
579;SDS011;276;48.392;9.950;2022-11-15T15:26:20;10.57;;;9.60;;
579;SDS011;276;48.392;9.950;2022-11-15T15:28:48;10.93;;;10.03;;
579;SDS011;276;48.392;9.950;2022-11-15T15:31:16;11.87;;;10.80;;
579;SDS011;276;48.392;9.950;2022-11-15T15:33:44;11.27;;;10.17;;
579;SDS011;276;48.392;9.950;2022-11-15T15:36:12;11.43;;;10.43;;
579;SDS011;276;48.392;9.950;2022-11-15T15:38:39;13.17;;;11.87;;
579;SDS011;276;48.392;9.950;2022-11-15T15:41:13;11.57;;;10.47;;
579;SDS011;276;48.392;9.950;2022-11-15T15:43:40;11.93;;;10.73;;
579;SDS011;276;48.392;9.950;2022-11-15T15:46:12;11.63;;;10.57;;
579;SDS011;276;48.392;9.950;2022-11-15T15:48:42;12.17;;;11.17;;
579;SDS011;276;48.392;9.950;2022-11-15T15:51:12;13.43;;;12.20;;
579;SDS011;276;48.392;9.950;2022-11-15T15:53:40;12.23;;;10.70;;
579;SDS011;276;48.392;9.950;2022-11-15T15:56:06;13.80;;;12.50;;
579;SDS011;276;48.392;9.950;2022-11-15T15:58:35;12.33;;;10.57;;
579;SDS011;276;48.392;9.950;2022-11-15T16:01:00;13.20;;;12.00;;
579;SDS011;276;48.392;9.950;2022-11-15T16:03:30;14.23;;;12.73;;
579;SDS011;276;48.392;9.950;2022-11-15T16:05:56;11.97;;;10.77;;
579;SDS011;276;48.392;9.950;2022-11-15T16:08:23;12.93;;;11.57;;
579;SDS011;276;48.392;9.950;2022-11-15T16:10:52;15.00;;;13.60;;
579;SDS011;276;48.392;9.950;2022-11-15T16:13:22;17.40;;;15.60;;
579;SDS011;276;48.392;9.950;2022-11-15T16:15:49;20.40;;;18.30;;
579;SDS011;276;48.392;9.950;2022-11-15T16:18:17;19.20;;;17.20;;
579;SDS011;276;48.392;9.950;2022-11-15T16:20:48;17.00;;;15.30;;
579;SDS011;276;48.392;9.950;2022-11-15T16:23:19;15.50;;;13.53;;
579;SDS011;276;48.392;9.950;2022-11-15T16:25:47;13.17;;;11.87;;
579;SDS011;276;48.392;9.950;2022-11-15T16:28:18;18.43;;;13.13;;
579;SDS011;276;48.392;9.950;2022-11-15T16:30:46;14.30;;;12.90;;
579;SDS011;276;48.392;9.950;2022-11-15T16:33:12;11.73;;;10.63;;
579;SDS011;276;48.392;9.950;2022-11-15T16:35:38;13.40;;;12.20;;
579;SDS011;276;48.392;9.950;2022-11-15T16:38:07;13.20;;;12.00;;
579;SDS011;276;48.392;9.950;2022-11-15T16:40:42;15.33;;;11.90;;
579;SDS011;276;48.392;9.950;2022-11-15T16:43:08;12.20;;;11.10;;
579;SDS011;276;48.392;9.950;2022-11-15T16:45:36;14.17;;;12.90;;
579;SDS011;276;48.392;9.950;2022-11-15T16:48:02;15.70;;;12.57;;
579;SDS011;276;48.392;9.950;2022-11-15T16:50:28;13.93;;;12.57;;
579;SDS011;276;48.392;9.950;2022-11-15T16:53:01;15.70;;;12.63;;
579;SDS011;276;48.392;9.950;2022-11-15T16:55:28;20.43;;;18.73;;
579;SDS011;276;48.392;9.950;2022-11-15T16:57:54;21.97;;;19.90;;
579;SDS011;276;48.392;9.950;2022-11-15T17:00:25;21.13;;;19.43;;
579;SDS011;276;48.392;9.950;2022-11-15T17:02:54;21.00;;;19.30;;
579;SDS011;276;48.392;9.950;2022-11-15T17:05:20;19.50;;;18.00;;
579;SDS011;276;48.392;9.950;2022-11-15T17:07:48;16.90;;;15.10;;
579;SDS011;276;48.392;9.950;2022-11-15T17:10:16;15.97;;;14.53;;
579;SDS011;276;48.392;9.950;2022-11-15T17:12:42;15.40;;;14.10;;
579;SDS011;276;48.392;9.950;2022-11-15T17:15:08;14.87;;;13.60;;
579;SDS011;276;48.392;9.950;2022-11-15T17:17:36;13.10;;;12.00;;
579;SDS011;276;48.392;9.950;2022-11-15T17:20:02;12.47;;;11.47;;
579;SDS011;276;48.392;9.950;2022-11-15T17:22:29;14.17;;;12.87;;
579;SDS011;276;48.392;9.950;2022-11-15T17:24:56;14.00;;;12.67;;
579;SDS011;276;48.392;9.950;2022-11-15T17:27:21;14.07;;;12.13;;
579;SDS011;276;48.392;9.950;2022-11-15T17:29:47;12.03;;;10.93;;
579;SDS011;276;48.392;9.950;2022-11-15T17:32:15;10.83;;;9.83;;
579;SDS011;276;48.392;9.950;2022-11-15T17:34:41;12.80;;;11.00;;
579;SDS011;276;48.392;9.950;2022-11-15T17:37:06;12.10;;;11.00;;
579;SDS011;276;48.392;9.950;2022-11-15T17:39:32;12.87;;;11.67;;
579;SDS011;276;48.392;9.950;2022-11-15T17:41:58;10.47;;;9.47;;
579;SDS011;276;48.392;9.950;2022-11-15T17:44:23;11.30;;;10.20;;
579;SDS011;276;48.392;9.950;2022-11-15T17:46:53;10.23;;;9.00;;
579;SDS011;276;48.392;9.950;2022-11-15T17:49:21;12.23;;;10.80;;